Terminal Aerodrome Forecast
Issued by NWS

Current Version | Previous Version | Text Only | Print | Product List | Glossary On
Versions: 1 2 3 4 5 6 7 8 9 10 11 12 13 14 15 16
000
FTUS44 KBMX 220700 AAA
TAFMGM
TAF AMD
KMGM 220738Z 2208/2306 00000KT 4SM BR SKC
      TEMPO 2208/2212 2SM BR
     FM221300 01005KT P6SM SKC=

USA.gov is the U.S. government's official web portal to all federal, state and local government web resources and services.